createdAt,value
2023-05-25T00:00:53.392Z,5.85714
2023-05-25T00:01:41.392Z,5.64286
2023-05-25T00:02:41.484Z,5.64286
2023-05-25T00:03:41.495Z,5.71429
2023-05-25T00:04:41.627Z,5.42857
2023-05-25T00:05:41.581Z,5.71429
2023-05-25T00:06:41.523Z,5.35714
2023-05-25T00:07:41.576Z,5.85714
2023-05-25T00:08:41.541Z,5.21429
2023-05-25T00:09:41.597Z,5.71429
2023-05-25T00:10:41.579Z,5.5
2023-05-25T00:11:41.613Z,5.35714
2023-05-25T00:12:41.623Z,5.42857
2023-05-25T00:13:41.660Z,5.5
2023-05-25T00:14:41.676Z,5.35714
2023-05-25T00:15:41.837Z,5.5
2023-05-25T00:16:41.736Z,5.21429
2023-05-25T00:17:41.709Z,5
2023-05-25T00:18:41.714Z,5.14286
2023-05-25T00:19:41.729Z,5.42857
2023-05-25T00:20:41.850Z,5.71429
2023-05-25T00:21:41.744Z,5.21429
2023-05-25T00:22:41.743Z,5.42857
2023-05-25T00:23:41.763Z,5.64286
2023-05-25T00:24:41.776Z,5.71429
2023-05-25T00:25:42.040Z,5.64286
2023-05-25T00:26:41.833Z,5.5
2023-05-25T00:27:41.876Z,5.21429
2023-05-25T00:28:41.891Z,5.35714
2023-05-25T00:29:41.907Z,5.71429
2023-05-25T00:30:41.969Z,5.71429
2023-05-25T00:31:41.968Z,5.85714
2023-05-25T00:32:42.043Z,5.5
2023-05-25T00:33:42.032Z,6.14286
2023-05-25T00:34:42.033Z,5.71429
2023-05-25T00:35:42.214Z,5.14286
2023-05-25T00:36:42.090Z,5.42857
2023-05-25T00:37:42.078Z,5.64286
2023-05-25T00:38:41.086Z,5.71429
2023-05-25T00:39:41.108Z,5.71429
2023-05-25T00:40:41.143Z,5.71429
2023-05-25T00:41:41.161Z,6.14286
2023-05-25T00:42:41.160Z,5.64286
2023-05-25T00:43:41.167Z,5.42857
2023-05-25T00:44:41.173Z,5.85714
2023-05-25T00:45:41.431Z,5.71429
2023-05-25T00:46:41.207Z,5.85714
2023-05-25T00:47:41.202Z,5.85714
2023-05-25T00:48:41.203Z,5.64286
2023-05-25T00:49:41.234Z,5.64286
2023-05-25T00:50:41.266Z,5.71429
2023-05-25T00:51:41.286Z,5.5
2023-05-25T00:52:41.302Z,5.5
2023-05-25T00:53:41.329Z,5.85714
2023-05-25T00:54:41.343Z,6.14286
2023-05-25T00:55:41.563Z,5.5
2023-05-25T00:56:41.430Z,6.5
2023-05-25T00:57:41.400Z,6.14286
2023-05-25T00:58:41.408Z,5.92857
2023-05-25T00:59:41.500Z,5.85714
2023-05-25T01:00:41.440Z,6
2023-05-25T01:01:41.488Z,5.92857
2023-05-25T01:02:41.529Z,5.92857
2023-05-25T01:03:41.614Z,5.5
2023-05-25T01:04:41.496Z,5.71429
2023-05-25T01:05:41.551Z,5.85714
2023-05-25T01:06:41.516Z,5.64286
2023-05-25T01:07:41.526Z,5.21429
2023-05-25T01:08:41.544Z,5.42857
2023-05-25T01:09:41.537Z,6
2023-05-25T01:10:41.552Z,5.92857
2023-05-25T01:11:41.577Z,6
2023-05-25T01:12:41.606Z,6.42857
2023-05-25T01:13:41.637Z,6.14286
2023-05-25T01:14:41.649Z,6.42857
2023-05-25T01:15:41.867Z,5.92857
2023-05-25T01:16:41.862Z,5.85714
2023-05-25T01:17:41.782Z,6
2023-05-25T01:18:41.788Z,6.21429
2023-05-25T01:19:41.770Z,5.85714
2023-05-25T01:20:41.873Z,5.85714
2023-05-25T01:21:41.808Z,6.14286
2023-05-25T01:22:41.866Z,6.21429
2023-05-25T01:23:41.840Z,5.71429
2023-05-25T01:24:41.861Z,5.71429
2023-05-25T01:25:42.103Z,5.35714
2023-05-25T01:26:41.902Z,5.64286
2023-05-25T01:27:41.915Z,5.35714
2023-05-25T01:28:41.933Z,5
2023-05-25T01:29:41.940Z,5.71429
2023-05-25T01:30:41.942Z,5.92857
2023-05-25T01:31:42.035Z,5.71429
2023-05-25T01:32:41.991Z,5.64286
2023-05-25T01:33:41.969Z,5.92857
2023-05-25T01:34:41.965Z,5.71429
2023-05-25T01:35:42.296Z,6.64286
2023-05-25T01:36:42.036Z,7.35714
2023-05-25T01:37:42.045Z,6.71429
2023-05-25T01:38:42.070Z,6.85714
2023-05-25T01:39:41.093Z,6.21429
2023-05-25T01:40:41.142Z,6.42857
2023-05-25T01:41:41.133Z,6.21429
2023-05-25T01:42:41.165Z,6.42857
2023-05-25T01:43:41.194Z,6.21429
2023-05-25T01:44:41.221Z,6.5
2023-05-25T01:45:41.365Z,5.71429
2023-05-25T01:46:41.292Z,5.14286
2023-05-25T01:47:41.351Z,5.5
2023-05-25T01:48:41.306Z,5.14286
2023-05-25T01:49:41.315Z,5.71429
2023-05-25T01:50:41.347Z,5.5
2023-05-25T01:51:41.374Z,5.71429
2023-05-25T01:52:41.394Z,5.71429
2023-05-25T01:53:41.391Z,6.42857
2023-05-25T01:54:41.395Z,6.14286
2023-05-25T01:55:41.555Z,6.71429
2023-05-25T01:56:41.420Z,5.85714
2023-05-25T01:57:41.451Z,6
2023-05-25T01:58:41.460Z,5.42857
2023-05-25T01:59:41.465Z,5.35714
2023-05-25T02:00:41.450Z,5.5
2023-05-25T02:01:41.528Z,5.42857
2023-05-25T02:02:41.530Z,5.5
2023-05-25T02:03:41.573Z,5.92857
2023-05-25T02:04:41.627Z,5.21429
2023-05-25T02:05:41.742Z,5.64286
2023-05-25T02:06:41.580Z,5.71429
2023-05-25T02:07:41.595Z,6.14286
2023-05-25T02:08:41.623Z,5.64286
2023-05-25T02:09:41.704Z,5.64286
2023-05-25T02:10:41.666Z,5.64286
2023-05-25T02:11:41.690Z,5.71429
2023-05-25T02:12:41.706Z,5.85714
2023-05-25T02:13:41.736Z,5.64286
2023-05-25T02:14:41.731Z,5.42857
2023-05-25T02:15:42.049Z,5.71429
2023-05-25T02:16:41.761Z,6.21429
2023-05-25T02:17:41.798Z,5.71429
2023-05-25T02:18:41.787Z,5.5
2023-05-25T02:19:41.796Z,5.85714
2023-05-25T02:20:41.882Z,5.92857
2023-05-25T02:21:41.812Z,6.42857
2023-05-25T02:22:41.834Z,5.85714
2023-05-25T02:23:41.817Z,5.5
2023-05-25T02:24:41.831Z,5.5
2023-05-25T02:25:42.001Z,5.5
2023-05-25T02:26:41.884Z,5.35714
2023-05-25T02:27:41.895Z,5.21429
2023-05-25T02:28:41.917Z,6.42857
2023-05-25T02:29:41.950Z,6.14286
2023-05-25T02:30:41.983Z,6.64286
2023-05-25T02:31:42.028Z,6.14286
2023-05-25T02:32:42.056Z,5.92857
2023-05-25T02:33:42.030Z,6
2023-05-25T02:34:42.048Z,6.14286
2023-05-25T02:35:42.185Z,6.35714
2023-05-25T02:36:42.074Z,6.14286
2023-05-25T02:37:42.089Z,6
2023-05-25T02:38:41.102Z,6.35714
2023-05-25T02:39:41.111Z,6.5
2023-05-25T02:40:41.115Z,6.42857
2023-05-25T02:41:41.130Z,6
2023-05-25T02:42:41.158Z,6.35714
2023-05-25T02:43:41.173Z,6.35714
2023-05-25T02:44:41.166Z,6.35714
2023-05-25T02:45:41.277Z,5.92857
2023-05-25T02:46:41.238Z,6.85714
2023-05-25T02:47:41.278Z,6.71429
2023-05-25T02:48:41.226Z,6.21429
2023-05-25T02:49:41.241Z,6.64286
2023-05-25T02:50:41.267Z,5.92857
2023-05-25T02:51:41.292Z,6
2023-05-25T02:52:41.339Z,7.21429
2023-05-25T02:53:41.334Z,6.35714
2023-05-25T02:54:41.351Z,6.14286
2023-05-25T02:55:41.427Z,6.85714
2023-05-25T02:56:41.393Z,6.5
2023-05-25T02:57:41.398Z,6.42857
2023-05-25T02:58:41.408Z,6.85714
2023-05-25T02:59:41.432Z,6
2023-05-25T03:00:41.465Z,5.71429
2023-05-25T03:01:41.452Z,6
2023-05-25T03:02:41.489Z,6.42857
2023-05-25T03:03:41.524Z,6.64286
2023-05-25T03:04:41.480Z,6
2023-05-25T03:05:41.613Z,6.5
2023-05-25T03:06:41.496Z,6.35714
2023-05-25T03:07:41.532Z,6.42857
2023-05-25T03:08:41.564Z,6.21429
2023-05-25T03:09:41.578Z,6.21429
2023-05-25T03:10:41.601Z,6.14286
2023-05-25T03:11:41.629Z,6.64286
2023-05-25T03:12:41.638Z,6.64286
2023-05-25T03:13:41.702Z,6.64286
2023-05-25T03:14:41.681Z,6.64286
2023-05-25T03:15:41.844Z,6.5
2023-05-25T03:16:41.735Z,6.14286
2023-05-25T03:17:41.777Z,6.35714
2023-05-25T03:18:41.771Z,6.42857
2023-05-25T03:19:41.809Z,6
2023-05-25T03:20:41.863Z,5.85714
2023-05-25T03:21:41.820Z,6.71429
2023-05-25T03:22:41.842Z,6.35714
2023-05-25T03:23:41.849Z,6.42857
2023-05-25T03:24:41.976Z,6.42857
2023-05-25T03:25:41.886Z,7.5
2023-05-25T03:26:41.874Z,7.71429
2023-05-25T03:27:41.873Z,7.35714
2023-05-25T03:28:41.889Z,7.42857
2023-05-25T03:29:41.920Z,7.21429
2023-05-25T03:30:41.917Z,7.42857
2023-05-25T03:31:41.972Z,8.14286
2023-05-25T03:32:41.990Z,7.64286
2023-05-25T03:33:41.985Z,7.85714
2023-05-25T03:34:42.049Z,8
2023-05-25T03:35:42.291Z,7.92857
2023-05-25T03:36:42.051Z,7.71429
2023-05-25T03:37:42.071Z,7.85714
2023-05-25T03:38:41.095Z,7
2023-05-25T03:39:41.113Z,6.14286
2023-05-25T03:40:41.160Z,6.14286
2023-05-25T03:41:41.154Z,6.21429
2023-05-25T03:42:41.165Z,6.35714
2023-05-25T03:43:41.193Z,6.21429
2023-05-25T03:44:41.491Z,6
2023-05-25T03:45:41.222Z,6.35714
2023-05-25T03:46:41.282Z,7.35714
2023-05-25T03:47:41.307Z,7.21429
2023-05-25T03:48:41.249Z,7.35714
2023-05-25T03:49:41.252Z,6.71429
2023-05-25T03:50:41.280Z,7.42857
2023-05-25T03:51:41.256Z,6.92857
2023-05-25T03:52:41.258Z,7.64286
2023-05-25T03:53:41.281Z,6.92857
2023-05-25T03:54:41.308Z,7
2023-05-25T03:55:41.354Z,7
2023-05-25T03:56:41.368Z,7.14286
2023-05-25T03:57:41.365Z,7.5
2023-05-25T03:58:41.396Z,6.92857
2023-05-25T03:59:41.418Z,7.14286
2023-05-25T04:00:41.432Z,7.35714
2023-05-25T04:01:41.491Z,7.71429
2023-05-25T04:02:41.551Z,7.14286
2023-05-25T04:03:41.682Z,7.42857
2023-05-25T04:04:41.588Z,7.14286
2023-05-25T04:05:41.561Z,7.64286
2023-05-25T04:06:41.560Z,6.85714
2023-05-25T04:07:41.582Z,7.35714
2023-05-25T04:08:41.595Z,7.21429
2023-05-25T04:09:41.607Z,7.35714
2023-05-25T04:10:41.637Z,6.92857
2023-05-25T04:11:41.635Z,6.71429
2023-05-25T04:12:41.644Z,6.71429
2023-05-25T04:13:41.642Z,6.21429
2023-05-25T04:14:41.651Z,6.64286
2023-05-25T04:15:41.716Z,6.5
2023-05-25T04:16:41.787Z,6.14286
2023-05-25T04:17:41.694Z,6.85714
2023-05-25T04:18:41.815Z,6.64286
2023-05-25T04:19:41.742Z,6.42857
2023-05-25T04:20:41.809Z,6.42857
2023-05-25T04:21:41.800Z,6.14286
2023-05-25T04:22:41.814Z,6.35714
2023-05-25T04:23:41.865Z,6.64286
2023-05-25T04:24:41.853Z,6.14286
2023-05-25T04:25:41.889Z,6.14286
2023-05-25T04:26:41.896Z,6
2023-05-25T04:27:41.915Z,6.71429
2023-05-25T04:28:41.936Z,6.5
2023-05-25T04:29:41.956Z,6.71429
2023-05-25T04:30:41.955Z,6.35714
2023-05-25T04:31:41.995Z,6.85714
2023-05-25T04:32:44.612Z,6.42857
2023-05-25T04:33:42.038Z,6.21429
2023-05-25T04:34:42.047Z,6.14286
2023-05-25T04:35:42.205Z,6.71429
2023-05-25T04:36:42.030Z,6.5
2023-05-25T04:37:42.034Z,7.21429
2023-05-25T04:38:42.031Z,6.92857
2023-05-25T04:39:42.086Z,6.64286
2023-05-25T04:40:42.076Z,7
2023-05-25T04:41:42.083Z,7.71429
2023-05-25T04:42:41.100Z,6.71429
2023-05-25T04:43:46.336Z,7.35714
2023-05-25T04:44:41.158Z,7.42857
2023-05-25T04:45:41.225Z,7.42857
2023-05-25T04:46:41.184Z,7.92857
2023-05-25T04:47:41.523Z,7.71429
2023-05-25T04:48:41.238Z,8
2023-05-25T04:49:41.243Z,7.92857
2023-05-25T04:50:41.266Z,7.92857
2023-05-25T04:52:41.302Z,8.21429
2023-05-25T04:53:41.321Z,8.21429
2023-05-25T04:54:41.321Z,8.21429
2023-05-25T04:55:41.460Z,8.35714
2023-05-25T04:56:41.350Z,8.42857
2023-05-25T04:57:41.361Z,8.35714
2023-05-25T04:58:41.357Z,8.21429
2023-05-25T04:59:41.364Z,8.92857
2023-05-25T05:00:41.660Z,8.85714
2023-05-25T05:01:41.665Z,8.64286
2023-05-25T05:02:41.493Z,9.42857
2023-05-25T05:03:41.443Z,9.35714
2023-05-25T05:04:41.452Z,8.5
2023-05-25T05:05:41.600Z,9
2023-05-25T05:06:41.502Z,8.71429
2023-05-25T05:07:41.528Z,9
2023-05-25T05:08:41.583Z,8.5
2023-05-25T05:09:41.572Z,9.64286
2023-05-25T05:10:41.822Z,9.64286
2023-05-25T05:11:41.621Z,9.64286
2023-05-25T05:12:41.643Z,9.5
2023-05-25T05:13:41.661Z,9.5
2023-05-25T05:14:41.666Z,10
2023-05-25T05:15:41.831Z,10.1429
2023-05-25T05:16:41.793Z,10.4286
2023-05-25T05:17:41.765Z,10.1429
2023-05-25T05:18:41.719Z,10.6429
2023-05-25T05:19:41.730Z,11
2023-05-25T05:20:41.795Z,10.6429
2023-05-25T05:21:41.761Z,11.3571
2023-05-25T05:22:41.754Z,10.7143
2023-05-25T05:23:41.747Z,11
2023-05-25T05:24:41.768Z,11.6429
2023-05-25T05:25:41.847Z,11.3571
2023-05-25T05:26:56.141Z,10.9286
2023-05-25T05:27:41.859Z,10.9286
2023-05-25T05:28:41.872Z,11.8571
2023-05-25T05:29:41.886Z,12
2023-05-25T05:30:41.912Z,11.3571
2023-05-25T05:31:41.980Z,11.3571
2023-05-25T05:32:41.980Z,11.6429
2023-05-25T05:33:42.025Z,11.8571
2023-05-25T05:34:41.994Z,10.9286
2023-05-25T05:35:42.108Z,11.5
2023-05-25T05:36:52.750Z,11.3571
2023-05-25T05:37:42.074Z,11.5
2023-05-25T05:38:42.069Z,10.7143
2023-05-25T05:39:42.071Z,10.8571
2023-05-25T05:40:41.104Z,11.4286
2023-05-25T05:41:41.105Z,11.3571
2023-05-25T05:42:41.133Z,11.1429
2023-05-25T05:43:41.123Z,11.6429
2023-05-25T05:44:41.125Z,11.4286
2023-05-25T05:45:41.152Z,11.5
2023-05-25T05:46:41.158Z,12.1429
2023-05-25T05:47:41.184Z,12.2143
2023-05-25T05:48:41.189Z,11.7143
2023-05-25T05:49:41.204Z,11.5
2023-05-25T05:50:42.487Z,11.4286
2023-05-25T05:51:41.259Z,12.4286
2023-05-25T05:52:41.279Z,11.5
2023-05-25T05:53:41.305Z,12.1429
2023-05-25T05:54:41.312Z,11.8571
2023-05-25T05:55:41.349Z,12.2143
2023-05-25T05:56:41.355Z,11.9286
2023-05-25T05:57:41.387Z,11.8571
2023-05-25T05:58:41.385Z,11.3571
2023-05-25T05:59:41.410Z,12.2143
2023-05-25T06:00:41.419Z,11.2143
2023-05-25T06:01:41.452Z,11.7143
2023-05-25T06:02:42.047Z,11.5
2023-05-25T06:03:41.456Z,11.1429
2023-05-25T06:04:41.536Z,10.4286
2023-05-25T06:05:41.516Z,10
2023-05-25T06:06:41.492Z,10
2023-05-25T06:07:41.517Z,9.85714
2023-05-25T06:08:41.530Z,9.5
2023-05-25T06:09:41.503Z,9.71429
2023-05-25T06:10:41.531Z,9.5
2023-05-25T06:11:41.572Z,9
2023-05-25T06:12:41.569Z,9.92857
2023-05-25T06:13:41.636Z,8.64286
2023-05-25T06:14:41.628Z,8.5
2023-05-25T06:15:41.640Z,9.21429
2023-05-25T06:16:41.706Z,8.85714
2023-05-25T06:17:41.715Z,9
2023-05-25T06:18:41.721Z,8.92857
2023-05-25T06:19:41.742Z,8.64286
2023-05-25T06:20:41.817Z,8.64286
2023-05-25T06:21:41.762Z,8.5
2023-05-25T06:22:41.801Z,8.71429
2023-05-25T06:23:41.804Z,8.85714
2023-05-25T06:24:41.825Z,8.5
2023-05-25T06:25:42.090Z,8.21429
2023-05-25T06:26:41.836Z,8.35714
2023-05-25T06:27:41.831Z,8.14286
2023-05-25T06:28:41.844Z,8.35714
2023-05-25T06:29:41.853Z,7.92857
2023-05-25T06:30:41.853Z,7.92857
2023-05-25T06:31:41.892Z,8.21429
2023-05-25T06:32:41.956Z,7.64286
2023-05-25T06:33:41.915Z,8.14286
2023-05-25T06:34:41.930Z,8.5
2023-05-25T06:35:42.269Z,8.35714
2023-05-25T06:36:42.040Z,7.85714
2023-05-25T06:37:42.022Z,7.71429
2023-05-25T06:38:42.043Z,8
2023-05-25T06:39:42.050Z,7.71429
2023-05-25T06:40:42.056Z,7.71429
2023-05-25T06:41:42.082Z,7.85714
2023-05-25T06:42:41.102Z,8.14286
2023-05-25T06:43:41.141Z,8
2023-05-25T06:44:41.144Z,7
2023-05-25T06:45:41.159Z,7
2023-05-25T06:46:41.260Z,8.35714
2023-05-25T06:47:41.236Z,7.42857
2023-05-25T06:48:41.194Z,6.85714
2023-05-25T06:49:41.205Z,7.21429
2023-05-25T06:50:41.218Z,7.5
2023-05-25T06:51:41.233Z,7.5
2023-05-25T06:52:41.265Z,7.35714
2023-05-25T06:53:41.236Z,7.42857
2023-05-25T06:54:41.246Z,7.42857
2023-05-25T06:55:41.355Z,7.14286
2023-05-25T06:56:41.301Z,7
2023-05-25T06:57:41.334Z,7.14286
2023-05-25T06:58:41.342Z,7.35714
2023-05-25T06:59:41.362Z,7.21429
2023-05-25T07:00:41.383Z,7.35714
2023-05-25T07:01:41.436Z,6.92857
2023-05-25T07:02:41.438Z,8
2023-05-25T07:03:41.448Z,7.21429
2023-05-25T07:04:41.488Z,8
2023-05-25T07:05:41.550Z,7.14286
2023-05-25T07:06:41.515Z,7.21429
2023-05-25T07:07:41.508Z,7.64286
2023-05-25T07:08:41.524Z,7.14286
2023-05-25T07:09:41.530Z,7.21429
2023-05-25T07:10:41.555Z,7.71429
2023-05-25T07:11:41.565Z,6.71429
2023-05-25T07:12:41.572Z,7.14286
2023-05-25T07:13:41.590Z,7.35714
2023-05-25T07:14:41.584Z,6.85714
2023-05-25T07:15:41.677Z,7.21429
2023-05-25T07:16:41.754Z,7.42857
2023-05-25T07:17:41.683Z,6.71429
2023-05-25T07:18:41.689Z,6.92857
2023-05-25T07:19:41.709Z,7.21429
2023-05-25T07:20:41.799Z,6.92857
2023-05-25T07:21:41.758Z,7.14286
2023-05-25T07:22:41.788Z,7.5
2023-05-25T07:23:41.809Z,7.42857
2023-05-25T07:24:41.856Z,7.35714
2023-05-25T07:25:41.943Z,7
2023-05-25T07:26:41.888Z,7.71429
2023-05-25T07:27:41.927Z,7
2023-05-25T07:28:41.967Z,8.42857
2023-05-25T07:29:41.968Z,6.92857
2023-05-25T07:30:41.985Z,8.85714
2023-05-25T07:31:42.071Z,7.5
2023-05-25T07:32:42.113Z,6.92857
2023-05-25T07:33:42.065Z,7.85714
2023-05-25T07:34:42.080Z,6.85714
2023-05-25T07:35:42.135Z,6.71429
2023-05-25T07:36:41.108Z,7.35714
2023-05-25T07:37:41.137Z,8.85714
2023-05-25T07:38:41.166Z,7.35714
2023-05-25T07:39:41.147Z,8
2023-05-25T07:40:41.153Z,7.21429
2023-05-25T07:41:41.159Z,6.92857
2023-05-25T07:42:41.175Z,6.5
2023-05-25T07:43:41.196Z,7
2023-05-25T07:44:41.188Z,6.92857
2023-05-25T07:45:41.215Z,7.14286
2023-05-25T07:46:41.271Z,7.21429
2023-05-25T07:47:41.304Z,6.64286
2023-05-25T07:48:41.266Z,7.14286
2023-05-25T07:49:41.292Z,7.71429
2023-05-25T07:50:41.332Z,7.5
2023-05-25T07:51:41.491Z,7.85714
2023-05-25T07:52:41.363Z,7.5
2023-05-25T07:53:41.374Z,7.5
2023-05-25T07:54:41.417Z,7.14286
2023-05-25T07:55:41.451Z,6.64286
2023-05-25T07:56:41.447Z,8
2023-05-25T07:57:41.503Z,8.92857
2023-05-25T07:58:41.476Z,6.85714
2023-05-25T07:59:41.492Z,7.14286
2023-05-25T08:00:41.503Z,6.92857
2023-05-25T08:01:41.541Z,7.71429
2023-05-25T08:02:41.674Z,12.5
2023-05-25T08:04:41.721Z,7.85714
2023-05-25T08:05:41.574Z,6.85714
2023-05-25T08:06:41.572Z,9.14286
2023-05-25T08:07:42.937Z,7
2023-05-25T08:08:41.585Z,6.5
2023-05-25T08:09:41.590Z,7.21429
2023-05-25T08:10:41.615Z,6.42857
2023-05-25T08:11:41.682Z,6.42857
2023-05-25T08:12:48.019Z,7.14286
2023-05-25T08:13:41.694Z,7.21429
2023-05-25T08:14:41.691Z,7.85714
2023-05-25T08:15:41.711Z,7.42857
2023-05-25T08:16:41.769Z,7.14286
2023-05-25T08:17:41.918Z,7.21429
2023-05-25T08:18:41.774Z,8.64286
2023-05-25T08:19:41.794Z,7.42857
2023-05-25T08:20:41.893Z,7.85714
2023-05-25T08:21:41.848Z,7.42857
2023-05-25T08:22:41.842Z,7.21429
2023-05-25T08:23:41.856Z,7.21429
2023-05-25T08:24:41.883Z,7
2023-05-25T08:25:41.925Z,7.21429
2023-05-25T08:26:53.846Z,6.42857
2023-05-25T08:27:41.908Z,6.35714
2023-05-25T08:28:41.907Z,7
2023-05-25T08:29:41.936Z,6.42857
2023-05-25T08:30:42.016Z,6.35714
2023-05-25T08:31:42.062Z,6.5
2023-05-25T08:32:42.032Z,8.92857
2023-05-25T08:33:42.001Z,8.42857
2023-05-25T08:34:42.031Z,9.21429
2023-05-25T08:35:42.225Z,7.21429
2023-05-25T08:36:41.076Z,6.92857
2023-05-25T08:37:41.122Z,7.14286
2023-05-25T08:38:41.114Z,15.4286
2023-05-25T08:39:41.150Z,7.92857
2023-05-25T08:40:41.156Z,6
2023-05-25T08:41:41.176Z,6.85714
2023-05-25T08:42:41.200Z,8.14286
2023-05-25T08:43:41.223Z,7.35714
2023-05-25T08:44:41.238Z,7.35714
2023-05-25T08:45:46.076Z,7.85714
2023-05-25T08:46:41.296Z,7.64286
2023-05-25T08:47:41.323Z,8.21429
2023-05-25T08:48:42.761Z,7.92857
2023-05-25T08:49:41.510Z,8.42857
2023-05-25T08:50:41.341Z,8.71429
2023-05-25T08:51:41.330Z,9
2023-05-25T08:52:41.346Z,8.92857
2023-05-25T08:53:41.424Z,8.85714
2023-05-25T08:54:41.382Z,8.21429
2023-05-25T08:55:41.393Z,8.21429
2023-05-25T08:56:41.419Z,8.85714
2023-05-25T08:57:41.445Z,8.71429
2023-05-25T08:58:41.492Z,8.5
2023-05-25T08:59:41.489Z,8.64286
2023-05-25T09:00:41.557Z,8.71429
2023-05-25T09:01:41.551Z,8.42857
2023-05-25T09:02:41.649Z,8.35714
2023-05-25T09:04:41.613Z,9.5
2023-05-25T09:05:41.740Z,10.8571
2023-05-25T09:06:41.663Z,9
2023-05-25T09:07:41.669Z,9.35714
2023-05-25T09:08:41.700Z,8.64286
2023-05-25T09:09:41.705Z,9
2023-05-25T09:10:41.725Z,9.64286
2023-05-25T09:11:44.187Z,9.5
2023-05-25T09:12:41.774Z,8.92857
2023-05-25T09:13:41.789Z,9.42857
2023-05-25T09:14:41.840Z,9
2023-05-25T09:15:41.835Z,8.5
2023-05-25T09:16:41.866Z,8.92857
2023-05-25T09:17:41.915Z,8.35714
2023-05-25T09:18:41.841Z,9.21429
2023-05-25T09:19:41.857Z,9.14286
2023-05-25T09:20:44.244Z,9.5
2023-05-25T09:21:41.882Z,8.92857
2023-05-25T09:22:41.916Z,8.85714
2023-05-25T09:23:41.940Z,9.64286
2023-05-25T09:24:41.963Z,10
2023-05-25T09:25:41.997Z,10.4286
2023-05-25T09:26:42.003Z,10.1429
2023-05-25T09:27:42.016Z,9
2023-05-25T09:28:42.035Z,9.85714
2023-05-25T09:29:42.056Z,9.85714
2023-05-25T09:30:42.359Z,10
2023-05-25T09:31:41.124Z,10.2143
2023-05-25T09:32:41.153Z,9.71429
2023-05-25T09:33:41.154Z,10.2143
2023-05-25T09:34:41.157Z,9.71429
2023-05-25T09:35:41.195Z,9.64286
2023-05-25T09:36:41.278Z,9
2023-05-25T09:37:41.482Z,10.1429
2023-05-25T09:38:41.781Z,10.1429
2023-05-25T09:39:41.258Z,9.92857
2023-05-25T09:40:41.243Z,9.14286
2023-05-25T09:41:41.243Z,10.1429
2023-05-25T09:42:41.253Z,10.3571
2023-05-25T09:43:44.991Z,9.21429
2023-05-25T09:44:41.271Z,10
2023-05-25T09:45:41.292Z,10.9286
2023-05-25T09:46:41.365Z,10.5
2023-05-25T09:47:41.384Z,10.4286
2023-05-25T09:48:41.374Z,9.42857
2023-05-25T09:49:41.386Z,9.42857
2023-05-25T09:50:41.514Z,9.71429
2023-05-25T09:51:41.428Z,10.5
2023-05-25T09:52:41.453Z,11.4286
2023-05-25T09:53:41.467Z,9.92857
2023-05-25T09:54:41.485Z,10.9286
2023-05-25T09:55:53.092Z,10.3571
2023-05-25T09:56:41.486Z,9.92857
2023-05-25T09:57:41.505Z,9.5
2023-05-25T09:58:41.530Z,11
2023-05-25T09:59:41.525Z,9.42857
2023-05-25T10:00:41.550Z,9.35714
2023-05-25T10:01:42.714Z,10.3571
2023-05-25T10:02:41.621Z,10.4286
2023-05-25T10:03:43.821Z,10.5
2023-05-25T10:04:41.643Z,9.92857
2023-05-25T10:05:41.616Z,10
2023-05-25T10:06:41.635Z,10.4286
2023-05-25T10:07:41.653Z,10.7143
2023-05-25T10:08:41.680Z,10.6429
2023-05-25T10:09:41.705Z,11
2023-05-25T10:10:41.887Z,10.7143
2023-05-25T10:11:41.747Z,11.1429
2023-05-25T10:12:41.768Z,11.3571
2023-05-25T10:13:41.797Z,11.1429
2023-05-25T10:14:41.818Z,11.6429
2023-05-25T10:15:41.888Z,11.3571
2023-05-25T10:16:41.908Z,11
2023-05-25T10:17:41.913Z,11.1429
2023-05-25T10:18:41.909Z,11.7143
2023-05-25T10:19:41.964Z,11.4286
2023-05-25T10:20:41.967Z,11.2143
2023-05-25T10:21:41.943Z,11.9286
2023-05-25T10:22:41.951Z,10.8571
2023-05-25T10:23:42.203Z,10.9286
2023-05-25T10:24:42.009Z,10.8571
2023-05-25T10:25:42.008Z,10.8571
2023-05-25T10:26:42.006Z,11.2143
2023-05-25T10:27:42.011Z,10.6429
2023-05-25T10:28:42.023Z,11
2023-05-25T10:29:42.044Z,11.1429
2023-05-25T10:30:42.053Z,10.9286
2023-05-25T10:31:42.151Z,11.3571
2023-05-25T10:32:41.206Z,10.2143
2023-05-25T10:33:41.120Z,10.9286
2023-05-25T10:34:41.144Z,10.4286
2023-05-25T10:35:50.704Z,10.7143
2023-05-25T10:36:41.184Z,10.8571
2023-05-25T10:37:41.210Z,10.4286
2023-05-25T10:38:41.222Z,10.4286
2023-05-25T10:39:41.233Z,10.3571
2023-05-25T10:40:41.268Z,10.7143
2023-05-25T10:41:41.263Z,9.71429
2023-05-25T10:42:41.336Z,10.7143
2023-05-25T10:43:41.454Z,10.1429
2023-05-25T10:44:41.312Z,10.3571
2023-05-25T10:45:41.313Z,10.6429
2023-05-25T10:46:41.403Z,10.8571
2023-05-25T10:47:41.363Z,11.1429
2023-05-25T10:48:41.330Z,11.5
2023-05-25T10:49:41.345Z,11.7143
2023-05-25T10:50:41.365Z,11.4286
2023-05-25T10:51:41.393Z,11.4286
2023-05-25T10:52:41.404Z,10.1429
2023-05-25T10:53:41.429Z,10.9286
2023-05-25T10:54:41.441Z,11.1429
2023-05-25T10:55:41.565Z,9.85714
2023-05-25T10:56:41.502Z,10.7143
2023-05-25T10:57:41.498Z,10.3571
2023-05-25T10:58:41.562Z,12.2143
2023-05-25T10:59:41.549Z,12.1429
2023-05-25T11:00:41.722Z,11.4286
2023-05-25T11:01:41.688Z,10.7143
2023-05-25T11:02:41.628Z,11.1429
2023-05-25T11:03:41.660Z,10.8571
2023-05-25T11:04:41.743Z,11.5
2023-05-25T11:05:41.647Z,11.6429
2023-05-25T11:06:41.652Z,11.5
2023-05-25T11:07:41.657Z,13
2023-05-25T11:08:41.688Z,13.7143
2023-05-25T11:09:41.680Z,12.4286
2023-05-25T11:10:41.717Z,12.9286
2023-05-25T11:11:41.704Z,12
2023-05-25T11:12:41.753Z,12
2023-05-25T11:13:41.756Z,12.4286
2023-05-25T11:14:41.778Z,13.4286
2023-05-25T11:15:41.827Z,11.5
2023-05-25T11:16:41.843Z,11.4286
2023-05-25T11:17:41.884Z,11.5
2023-05-25T11:18:41.868Z,11.2143
2023-05-25T11:19:41.872Z,10.8571
2023-05-25T11:20:42.089Z,10.4286
2023-05-25T11:21:41.928Z,9.92857
2023-05-25T11:22:41.966Z,10.2143
2023-05-25T11:23:41.965Z,10.4286
2023-05-25T11:24:41.980Z,10.4286
2023-05-25T11:25:42.246Z,10.7143
2023-05-25T11:26:42.068Z,9.71429
2023-05-25T11:27:42.057Z,8.5
2023-05-25T11:28:42.071Z,8.85714
2023-05-25T11:29:42.054Z,9
2023-05-25T11:30:42.121Z,9.71429
2023-05-25T11:31:43.816Z,9.5
2023-05-25T11:32:42.143Z,9.5
2023-05-25T11:33:41.103Z,8.92857
2023-05-25T11:34:41.116Z,8.71429
2023-05-25T11:35:41.148Z,8.5
2023-05-25T11:36:41.220Z,9.64286
2023-05-25T11:37:41.205Z,9.71429
2023-05-25T11:38:43.520Z,8.35714
2023-05-25T11:39:41.282Z,9.42857
2023-05-25T11:40:41.315Z,9.35714
2023-05-25T11:41:41.311Z,10.1429
2023-05-25T11:42:41.349Z,10.7143
2023-05-25T11:43:41.369Z,10.7143
2023-05-25T11:44:41.447Z,11.4286
2023-05-25T11:45:41.414Z,10.8571
2023-05-25T11:46:41.518Z,10.2143
2023-05-25T11:47:41.464Z,11.1429
2023-05-25T11:48:41.468Z,10.5
2023-05-25T11:49:41.488Z,10.8571
2023-05-25T11:50:41.562Z,10.3571
2023-05-25T11:51:41.517Z,10.5
2023-05-25T11:52:41.553Z,9.71429
2023-05-25T11:53:41.547Z,10.2143
2023-05-25T11:54:41.599Z,11.2143
2023-05-25T11:55:41.602Z,10.8571
2023-05-25T11:56:41.638Z,10.8571
2023-05-25T11:57:41.587Z,10.6429
2023-05-25T11:58:41.592Z,11
2023-05-25T11:59:41.621Z,8.92857
2023-05-25T12:00:41.859Z,10.1429
2023-05-25T12:01:41.642Z,10.3571
2023-05-25T12:02:41.870Z,11.6429
2023-05-25T12:03:41.760Z,11.4286
2023-05-25T12:04:41.755Z,11.8571
2023-05-25T12:05:41.806Z,10
2023-05-25T12:06:41.820Z,10.1429
2023-05-25T12:07:41.772Z,10.5
2023-05-25T12:08:41.789Z,9.92857
2023-05-25T12:09:41.809Z,10.8571
2023-05-25T12:10:41.970Z,9.42857
2023-05-25T12:11:41.849Z,10.2143
2023-05-25T12:12:41.863Z,11.4286
2023-05-25T12:13:41.889Z,11.9286
2023-05-25T12:14:41.907Z,12.3571
2023-05-25T12:15:42.037Z,12.4286
2023-05-25T12:16:42.074Z,12.3571
2023-05-25T12:17:41.978Z,10.9286
2023-05-25T12:18:41.931Z,12.4286
2023-05-25T12:19:41.941Z,12.4286
2023-05-25T12:20:42.018Z,12.8571
2023-05-25T12:21:42.024Z,11.9286
2023-05-25T12:22:41.981Z,13.1429
2023-05-25T12:23:42.014Z,12.1429
2023-05-25T12:24:42.017Z,11.7143
2023-05-25T12:25:50.382Z,12
2023-05-25T12:26:42.063Z,12.1429
2023-05-25T12:27:41.083Z,12.6429
2023-05-25T12:28:41.133Z,12.5
2023-05-25T12:29:41.142Z,12.3571